Airfield :







YOU CAN JOIN US ON...

 
LOGIN :

Register | Disclaimer

   EN    FR    IT 

 









Legend :    VFR   Marginal VFR   IFR   Intensive IFR   Very Intensive IFR
Visi :
Ceiling :
>= 8 km
>= 3000ft
5 to 8 km
1000 to 3000 ft
1500m to 5 km
500 to 1000 ft
800 to 1500m
200 to 500 ft
< 800m
< 200 ft
Symbols :   Thunderstorms  Fog  Heavy snow  Heavy precipitations  Wind > 20 kt






- Airport Elevation : 100 ft
- IATA code : PSM


KPSM - Portsmouth International at Pease

CURRENT METAR :
  • 190756Z 34006KT 10SM SCT041 BKN070 16/14 A3004 RMK AO2A SLP175 T01600135

EXPIRED METARs :
  • 190656Z 35006KT 10SM FEW040 SCT250 17/15 A3004 RMK AO2A SLP175 T01730149
  • 190556Z 36009KT 10SM SCT030 BKN070 BKN250 19/16 A3005 RMK AO2A SLP178 60000 T01930159 10198 20188 52011

TAF KPSM
Valid from the 19 at 06:00 until the 20 at 06:00 UTC


190520Z 1906/2006 36006KT P6SM BKN025
FM190800 35005KT P6SM SCT045
FM191200 01006KT P6SM SKC
KZBW FIR / North America



MET'MAP, your aeronautical weather chart ! - Copyright ORBIFLY December 2007 - Disclaimer

ORBIFLY MET'MAP TEAM :

Programming & Development : Alexandra Zaïnal
Concept & original design : Baudouin d'Aumeries
Assistance for programming : Marc-Olivier Méhu
Technical & hardware support : Manuel Goepfert

Contact : metmap@orbifly.com




SOURCES & CREDITS :

   NOAA